METAR AND TAF INFORMATION
METAR FOR KAJO
ADDS - METARS form results

(1036 UTC 05 March 2021)
Data provider http://aviationweather.gov/metar/data/
 
METAR text: KAJO 050956Z AUTO 00000KT 10SM CLR 04/04 A3021 RMK AO2 SLP226 T00440039
Conditions at: KAJO (CORONA MUNI , CA, US) observed 0956 UTC 05 March 2021
Temperature: 4.4°C (40°F)
Dewpoint: 3.9°C (39°F) [RH = 97%]
Pressure (altimeter): 30.21 inches Hg (1023.1 mb)
[Sea-level pressure: 1022.6 mb]
Winds: calm
Visibility: 10 or more miles (16+ km)
Ceiling: at least 12,000 feet AGL
Clouds: sky clear below 12,000 feet AGL
Weather: automated observation with no human augmentation;
there may or may not be significant weather present at this time

 AIRPORT MAP

 RUNWAY INFORMATION
Runway 07 Runway length 3199 ft Runway width 60 ft
Runway elevation 517 ft Runway displaced threshold 194 ft Runway heading 91
Runway 25 Runway length 3199 ft Runway width 60 ft
Runway elevation 532 ft Runway displaced threshold 196 ft Runway heading 271

 AIRPORT FREQUENCIES
Type A/D Name SOCAL APP/ Frequency 135.4 MHZ
Type AWOS Name AWOS 3 Frequency 132.175 MHZ
Type UNIC Name CTAF/UNICO Frequency 122.7 MHZ

 AIRPORT NEAR NAVIGATION AIDS

-